createdAt,value
2022-09-22T00:01:50.364Z,75.60
2022-09-22T00:04:52.283Z,75.80
2022-09-22T00:07:54.355Z,75.20
2022-09-22T00:11:08.006Z,75.90
2022-09-22T00:14:27.728Z,75.90
2022-09-22T00:17:29.719Z,76.70
2022-09-22T00:20:31.746Z,76.30
2022-09-22T00:23:34.443Z,76.10
2022-09-22T00:26:37.825Z,76.70
2022-09-22T00:29:39.835Z,76.70
2022-09-22T00:32:41.762Z,76.00
2022-09-22T00:35:43.766Z,75.50
2022-09-22T00:38:46.369Z,76.30
2022-09-22T00:41:49.533Z,76.40
2022-09-22T00:44:51.631Z,76.60
2022-09-22T00:47:53.760Z,76.80
2022-09-22T00:50:58.240Z,76.40
2022-09-22T00:54:04.070Z,76.60
2022-09-22T00:57:16.451Z,77.10
2022-09-22T01:00:19.212Z,77.00
2022-09-22T01:03:26.247Z,76.80
2022-09-22T01:06:31.524Z,77.00
2022-09-22T01:09:33.939Z,76.80
2022-09-22T01:12:36.954Z,76.80
2022-09-22T01:15:46.297Z,77.10
2022-09-22T01:19:06.525Z,76.60
2022-09-22T01:22:26.668Z,77.40
2022-09-22T01:26:03.946Z,77.60
2022-09-22T01:29:17.635Z,77.40
2022-09-22T01:32:27.562Z,77.70
2022-09-22T01:35:36.289Z,77.60
2022-09-22T01:38:56.774Z,77.50
2022-09-22T01:42:24.128Z,77.60
2022-09-22T01:45:29.448Z,77.80
2022-09-22T01:48:37.273Z,78.10
2022-09-22T01:51:50.114Z,77.90
2022-09-22T01:55:18.550Z,77.80
2022-09-22T01:58:34.417Z,77.70
2022-09-22T02:01:44.603Z,77.80
2022-09-22T02:04:52.859Z,77.80
2022-09-22T02:07:56.109Z,78.00
2022-09-22T02:11:03.880Z,78.00
2022-09-22T02:14:07.017Z,78.20
2022-09-22T02:17:08.971Z,78.40
2022-09-22T02:20:13.224Z,78.60
2022-09-22T02:23:15.301Z,78.40
2022-09-22T02:26:31.882Z,78.40
2022-09-22T02:29:42.045Z,78.70
2022-09-22T02:32:47.856Z,77.90
2022-09-22T02:35:55.898Z,78.10
2022-09-22T02:39:22.785Z,78.00
2022-09-22T02:42:27.537Z,78.10
2022-09-22T02:45:56.085Z,78.40
2022-09-22T02:49:02.992Z,78.40
2022-09-22T02:52:13.473Z,78.60
2022-09-22T02:55:15.559Z,78.30
2022-09-22T02:58:17.823Z,78.20
2022-09-22T03:01:19.889Z,78.50
2022-09-22T03:04:22.909Z,79.10
2022-09-22T03:07:25.019Z,79.10
2022-09-22T03:10:27.032Z,79.30
2022-09-22T03:13:29.006Z,79.00
2022-09-22T03:16:31.036Z,79.30
2022-09-22T03:19:33.033Z,79.50
2022-09-22T03:22:35.092Z,79.50
2022-09-22T03:25:37.111Z,79.30
2022-09-22T03:28:39.123Z,79.50
2022-09-22T03:31:41.211Z,79.00
2022-09-22T03:34:43.325Z,79.30
2022-09-22T03:37:46.477Z,79.60
2022-09-22T03:40:52.060Z,79.30
2022-09-22T03:43:54.375Z,78.90
2022-09-22T03:46:57.931Z,79.20
2022-09-22T03:50:00.185Z,79.20
2022-09-22T03:53:02.199Z,80.00
2022-09-22T03:56:12.796Z,79.70
2022-09-22T03:59:15.228Z,79.90
2022-09-22T04:02:17.394Z,80.00
2022-09-22T04:05:19.510Z,79.80
2022-09-22T04:08:21.482Z,80.20
2022-09-22T04:11:23.847Z,79.70
2022-09-22T04:14:26.030Z,80.10
2022-09-22T04:17:28.183Z,79.70
2022-09-22T04:20:30.381Z,79.80
2022-09-22T04:23:33.065Z,80.00
2022-09-22T04:26:35.232Z,80.10
2022-09-22T04:29:37.166Z,79.80
2022-09-22T04:32:39.157Z,80.10
2022-09-22T04:35:41.232Z,80.20
2022-09-22T04:38:43.302Z,80.10
2022-09-22T04:41:45.457Z,79.90
2022-09-22T04:44:47.668Z,80.20
2022-09-22T04:47:52.961Z,80.20
2022-09-22T04:50:57.783Z,80.30
2022-09-22T04:53:59.990Z,80.20
2022-09-22T04:57:04.431Z,81.00
2022-09-22T05:00:08.479Z,80.80
2022-09-22T05:03:16.519Z,81.00
2022-09-22T05:06:22.383Z,81.20
2022-09-22T05:09:25.203Z,81.00
2022-09-22T05:12:27.318Z,81.20
2022-09-22T05:15:29.479Z,81.30
2022-09-22T05:18:31.393Z,81.10
2022-09-22T05:21:33.372Z,80.90
2022-09-22T05:24:35.694Z,80.60
2022-09-22T05:27:42.855Z,80.60
2022-09-22T05:30:44.750Z,80.60
2022-09-22T05:33:46.620Z,80.50
2022-09-22T05:36:48.563Z,80.90
2022-09-22T05:39:52.658Z,80.50
2022-09-22T05:42:54.725Z,80.50
2022-09-22T05:45:56.634Z,80.50
2022-09-22T05:48:58.577Z,80.30
2022-09-22T05:52:00.591Z,80.40
2022-09-22T05:55:02.530Z,80.60
2022-09-22T05:58:04.577Z,80.10
2022-09-22T06:01:06.554Z,80.00
2022-09-22T06:04:08.531Z,80.40
2022-09-22T06:07:10.394Z,80.30
2022-09-22T06:10:12.646Z,80.30
2022-09-22T06:13:14.616Z,80.00
2022-09-22T06:16:17.262Z,79.50
2022-09-22T06:19:19.563Z,79.20
2022-09-22T06:22:21.487Z,78.60
2022-09-22T06:25:23.972Z,77.40
2022-09-22T06:28:27.186Z,76.30
2022-09-22T06:31:29.076Z,74.50
2022-09-22T06:34:30.978Z,74.30
2022-09-22T06:37:33.114Z,73.50
2022-09-22T06:40:35.743Z,71.70
2022-09-22T06:43:37.642Z,71.50
2022-09-22T06:46:39.802Z,69.40
2022-09-22T06:49:41.660Z,70.40
2022-09-22T06:52:44.097Z,68.90
2022-09-22T06:55:46.271Z,67.60
2022-09-22T07:01:54.868Z,66.30
2022-09-22T07:04:56.922Z,68.20
2022-09-22T07:07:58.823Z,66.70
2022-09-22T07:11:03.281Z,66.00
2022-09-22T07:14:05.104Z,63.70
2022-09-22T07:17:06.981Z,61.20
2022-09-22T07:20:09.125Z,59.20
2022-09-22T07:23:12.338Z,57.70
2022-09-22T07:26:16.070Z,55.60
2022-09-22T07:29:17.945Z,54.50
2022-09-22T07:32:20.876Z,53.20
2022-09-22T07:35:22.890Z,52.10
2022-09-22T07:38:27.438Z,50.30
2022-09-22T07:41:31.476Z,49.40
2022-09-22T07:44:33.372Z,48.00
2022-09-22T07:47:35.181Z,47.60
2022-09-22T07:50:37.113Z,46.10
2022-09-22T07:53:39.594Z,46.20
2022-09-22T07:56:45.229Z,44.90
2022-09-22T07:59:47.106Z,44.50
2022-09-22T08:02:52.774Z,44.10
2022-09-22T08:06:05.320Z,41.80
2022-09-22T08:09:07.975Z,41.60
2022-09-22T08:12:09.762Z,42.30
2022-09-22T08:15:12.460Z,42.30
2022-09-22T08:18:14.373Z,42.40
2022-09-22T08:21:16.205Z,42.20
2022-09-22T08:24:19.682Z,42.80
2022-09-22T08:27:21.573Z,43.80
2022-09-22T08:30:23.495Z,43.40
2022-09-22T08:33:26.171Z,44.90
2022-09-22T08:36:28.513Z,44.10
2022-09-22T08:39:30.385Z,43.70
2022-09-22T08:42:33.956Z,43.30
2022-09-22T08:45:38.264Z,42.10
2022-09-22T08:48:42.490Z,41.80
2022-09-22T08:51:56.376Z,42.90
2022-09-22T08:54:58.729Z,42.00
2022-09-22T08:58:12.342Z,41.00
2022-09-22T09:01:39.032Z,42.20
2022-09-22T09:04:48.893Z,42.10
2022-09-22T09:08:15.027Z,41.20
2022-09-22T09:11:30.774Z,41.40
2022-09-22T09:14:47.597Z,42.70
2022-09-22T09:17:51.803Z,41.50
2022-09-22T09:20:54.989Z,42.00
2022-09-22T09:27:29.082Z,41.40
2022-09-22T09:30:45.595Z,40.80
2022-09-22T09:33:56.321Z,40.50
2022-09-22T09:37:12.787Z,40.10
2022-09-22T09:40:19.625Z,39.60
2022-09-22T09:43:23.810Z,38.80
2022-09-22T09:46:51.686Z,37.50
2022-09-22T09:49:54.118Z,38.40
2022-09-22T09:52:55.955Z,39.70
2022-09-22T09:55:57.819Z,39.30
2022-09-22T09:59:06.069Z,39.80
2022-09-22T10:02:20.832Z,39.10
2022-09-22T10:05:23.512Z,39.90
2022-09-22T10:08:25.683Z,40.40
2022-09-22T10:11:32.006Z,40.40
2022-09-22T10:14:37.201Z,39.70
2022-09-22T10:17:43.194Z,41.40
2022-09-22T10:20:45.112Z,38.10
2022-09-22T10:23:48.198Z,39.10
2022-09-22T10:26:53.728Z,37.60
2022-09-22T10:30:25.462Z,35.60
2022-09-22T10:33:27.455Z,36.70
2022-09-22T10:36:30.554Z,39.00
2022-09-22T10:39:41.714Z,38.80
2022-09-22T10:42:44.625Z,36.80
2022-09-22T10:46:14.516Z,38.00
2022-09-22T10:49:44.326Z,37.00
2022-09-22T11:03:46.826Z,37.60
2022-09-22T11:07:14.347Z,38.50
2022-09-22T11:10:36.299Z,40.00
2022-09-22T11:14:11.440Z,40.30
2022-09-22T11:17:25.652Z,40.60
2022-09-22T11:20:30.942Z,39.00
2022-09-22T11:23:40.877Z,38.10
2022-09-22T11:26:52.323Z,40.10
2022-09-22T11:30:28.847Z,41.60
2022-09-22T11:33:58.349Z,40.40
2022-09-22T11:37:19.238Z,39.70
2022-09-22T11:40:29.690Z,39.30
2022-09-22T11:44:18.775Z,38.00
2022-09-22T11:47:40.816Z,39.10
2022-09-22T11:50:48.795Z,39.10
2022-09-22T11:53:59.864Z,40.30
2022-09-22T11:57:07.667Z,39.30
2022-09-22T12:00:14.234Z,39.30
2022-09-22T12:03:35.760Z,38.20
2022-09-22T12:06:43.045Z,39.30
2022-09-22T12:09:55.536Z,37.90
2022-09-22T12:12:57.675Z,38.60
2022-09-22T12:16:19.851Z,39.50
2022-09-22T12:19:33.693Z,39.50
2022-09-22T12:22:44.487Z,38.80
2022-09-22T12:25:49.066Z,37.70
2022-09-22T12:28:51.432Z,39.40
2022-09-22T12:31:58.006Z,40.30
2022-09-22T12:35:00.736Z,39.20
2022-09-22T12:38:02.926Z,41.30
2022-09-22T12:41:06.116Z,38.10
2022-09-22T12:44:13.330Z,38.40
2022-09-22T12:47:35.479Z,39.50
2022-09-22T12:50:40.630Z,38.80
2022-09-22T12:53:43.857Z,38.90
2022-09-22T12:56:54.048Z,39.50
2022-09-22T13:00:18.658Z,40.80
2022-09-22T13:03:26.680Z,39.20
2022-09-22T13:06:28.470Z,38.10
2022-09-22T13:09:30.622Z,39.40
2022-09-22T13:12:32.659Z,38.80
2022-09-22T13:15:46.891Z,38.30
2022-09-22T13:18:58.606Z,39.00
2022-09-22T13:22:15.796Z,38.90
2022-09-22T13:25:28.080Z,41.30
2022-09-22T13:28:29.980Z,39.20
2022-09-22T13:31:38.920Z,39.00
2022-09-22T13:34:40.774Z,38.60
2022-09-22T13:37:42.847Z,40.40
2022-09-22T13:40:47.007Z,40.80
2022-09-22T13:44:00.074Z,41.80
2022-09-22T13:47:07.256Z,40.90
2022-09-22T13:50:18.693Z,40.10
2022-09-22T13:53:22.478Z,40.50
2022-09-22T13:56:25.987Z,40.30
2022-09-22T13:59:37.324Z,40.40
2022-09-22T14:02:45.332Z,42.30
2022-09-22T14:05:53.793Z,41.90
2022-09-22T14:08:57.128Z,41.60
2022-09-22T14:11:59.184Z,41.80
2022-09-22T14:15:52.344Z,41.60
2022-09-22T14:18:58.839Z,42.70
2022-09-22T14:22:03.527Z,42.40
2022-09-22T14:25:06.014Z,43.00
2022-09-22T14:28:21.006Z,41.30
2022-09-22T14:31:27.654Z,42.50
2022-09-22T14:34:32.734Z,41.90
2022-09-22T14:37:42.212Z,44.20
2022-09-22T14:40:57.850Z,42.50
2022-09-22T14:43:59.866Z,40.50
2022-09-22T14:47:17.251Z,41.70
2022-09-22T14:50:36.198Z,41.50
2022-09-22T14:53:46.205Z,42.10
2022-09-22T14:56:48.127Z,42.10
2022-09-22T14:59:54.976Z,42.20
2022-09-22T15:02:56.922Z,42.70
2022-09-22T15:06:11.207Z,42.20
2022-09-22T15:09:42.852Z,43.00
2022-09-22T15:12:49.398Z,43.00
2022-09-22T15:15:51.640Z,42.00
2022-09-22T15:18:53.575Z,42.20
2022-09-22T15:21:55.476Z,42.70
2022-09-22T15:24:57.769Z,43.00
2022-09-22T15:27:59.702Z,44.00
2022-09-22T15:31:01.564Z,44.00
2022-09-22T15:34:03.492Z,42.30
2022-09-22T15:37:05.395Z,44.70
2022-09-22T15:40:14.145Z,44.00
2022-09-22T15:43:18.735Z,42.70
2022-09-22T15:46:33.952Z,43.40
2022-09-22T15:49:36.967Z,46.00
2022-09-22T15:52:38.889Z,43.60
2022-09-22T15:55:40.787Z,43.80
2022-09-22T15:58:43.586Z,43.70
2022-09-22T16:01:49.082Z,43.00
2022-09-22T16:04:51.739Z,44.10
2022-09-22T16:07:55.241Z,43.00
2022-09-22T16:10:58.323Z,44.30
2022-09-22T16:14:01.839Z,43.80
2022-09-22T16:17:03.670Z,44.10
2022-09-22T16:20:06.179Z,45.30
2022-09-22T16:23:09.498Z,43.90
2022-09-22T16:26:11.681Z,44.00
2022-09-22T16:29:13.657Z,45.40
2022-09-22T16:32:15.575Z,45.90
2022-09-22T16:35:17.522Z,45.40
2022-09-22T16:38:19.396Z,49.60
2022-09-22T16:41:23.577Z,49.20
2022-09-22T16:44:25.609Z,47.10
2022-09-22T16:47:27.415Z,51.90
2022-09-22T16:50:29.341Z,51.50
2022-09-22T16:53:31.274Z,51.90
2022-09-22T16:56:34.826Z,53.40
2022-09-22T16:59:36.823Z,52.60
2022-09-22T17:02:38.757Z,55.00
2022-09-22T17:05:40.601Z,55.50
2022-09-22T17:08:42.795Z,55.90
2022-09-22T17:11:46.377Z,56.40
2022-09-22T17:14:48.206Z,56.40
2022-09-22T17:17:50.396Z,56.70
2022-09-22T17:20:52.263Z,56.30
2022-09-22T17:23:55.661Z,57.00
2022-09-22T17:26:59.000Z,56.80
2022-09-22T17:30:00.862Z,56.90
2022-09-22T17:33:02.740Z,57.00
2022-09-22T17:36:05.700Z,58.00
2022-09-22T17:39:07.960Z,58.10
2022-09-22T17:42:09.766Z,58.40
2022-09-22T17:45:11.681Z,58.80
2022-09-22T17:48:13.691Z,59.40
2022-09-22T17:51:34.184Z,59.90
2022-09-22T17:54:37.868Z,60.30
2022-09-22T17:57:44.670Z,59.50
2022-09-22T18:00:46.549Z,60.30
2022-09-22T18:03:48.413Z,59.10
2022-09-22T18:06:53.743Z,61.30
2022-09-22T18:09:55.624Z,61.10
2022-09-22T18:12:57.740Z,59.60
2022-09-22T18:16:21.265Z,58.80
2022-09-22T18:19:23.424Z,59.30
2022-09-22T18:22:27.144Z,59.70
2022-09-22T18:25:29.030Z,59.50
2022-09-22T18:28:30.902Z,60.60
2022-09-22T18:31:33.030Z,60.50
2022-09-22T18:34:34.909Z,60.10
2022-09-22T18:37:36.803Z,62.40
2022-09-22T18:40:38.705Z,61.20
2022-09-22T18:43:40.629Z,63.60
2022-09-22T18:46:45.167Z,63.80
2022-09-22T18:49:47.156Z,63.10
2022-09-22T18:52:49.099Z,62.60
2022-09-22T18:55:50.949Z,64.50
2022-09-22T18:58:55.052Z,64.80
2022-09-22T19:01:57.045Z,65.60
2022-09-22T19:04:59.035Z,64.60
2022-09-22T19:08:01.476Z,63.90
2022-09-22T19:11:03.338Z,65.30
2022-09-22T19:14:05.291Z,63.50
2022-09-22T19:17:09.331Z,64.30
2022-09-22T19:20:14.170Z,64.80
2022-09-22T19:23:16.295Z,64.60
2022-09-22T19:26:18.179Z,65.90
2022-09-22T19:29:20.113Z,66.30
2022-09-22T19:32:22.009Z,66.60
2022-09-22T19:35:23.945Z,66.70
2022-09-22T19:38:25.819Z,66.70
2022-09-22T19:41:28.152Z,67.60
2022-09-22T19:44:30.435Z,68.10
2022-09-22T19:47:38.995Z,68.40
2022-09-22T19:50:40.832Z,69.00
2022-09-22T19:53:42.817Z,69.20
2022-09-22T19:56:44.672Z,69.70
2022-09-22T19:59:46.657Z,69.60
2022-09-22T20:02:48.597Z,70.40
2022-09-22T20:05:51.204Z,70.50
2022-09-22T20:08:55.977Z,70.60
2022-09-22T20:11:57.968Z,70.70
2022-09-22T20:14:59.828Z,70.70
2022-09-22T20:18:01.724Z,69.70
2022-09-22T20:21:03.721Z,70.60
2022-09-22T20:24:05.915Z,70.20
2022-09-22T20:27:08.286Z,69.90
2022-09-22T20:33:22.398Z,68.80
2022-09-22T20:36:24.325Z,68.20
2022-09-22T20:39:26.321Z,68.80
2022-09-22T20:42:28.242Z,69.00
2022-09-22T20:45:30.123Z,68.60
2022-09-22T20:48:32.006Z,67.20
2022-09-22T20:51:33.880Z,68.60
2022-09-22T20:54:35.713Z,67.80
2022-09-22T20:57:37.673Z,68.90
2022-09-22T21:00:39.571Z,68.70
2022-09-22T21:03:41.855Z,66.90
2022-09-22T21:06:43.765Z,68.00
2022-09-22T21:09:45.701Z,68.10
2022-09-22T21:12:47.637Z,68.80
2022-09-22T21:15:57.313Z,67.50
2022-09-22T21:18:59.211Z,67.80
2022-09-22T21:22:01.281Z,67.30
2022-09-22T21:25:03.358Z,68.40
2022-09-22T21:28:05.256Z,67.40
2022-09-22T21:31:08.590Z,67.40
2022-09-22T21:34:10.696Z,68.80
2022-09-22T21:37:12.594Z,67.70
2022-09-22T21:40:14.612Z,69.10
2022-09-22T21:43:16.527Z,69.00
2022-09-22T21:46:21.092Z,69.90
2022-09-22T21:49:23.917Z,69.90
2022-09-22T21:52:25.811Z,69.50
2022-09-22T21:55:27.831Z,69.70
2022-09-22T21:58:31.843Z,70.20
2022-09-22T22:01:36.745Z,70.00
2022-09-22T22:04:41.088Z,70.00
2022-09-22T22:07:43.074Z,70.50
2022-09-22T22:10:44.943Z,70.50
2022-09-22T22:13:47.075Z,70.40
2022-09-22T22:16:51.618Z,71.10
2022-09-22T22:19:53.459Z,71.30
2022-09-22T22:22:55.385Z,69.50
2022-09-22T22:25:59.241Z,70.30
2022-09-22T22:29:02.465Z,71.00
2022-09-22T22:32:06.748Z,70.80
2022-09-22T22:35:09.341Z,71.30
2022-09-22T22:38:11.176Z,71.20
2022-09-22T22:41:16.271Z,70.80
2022-09-22T22:44:18.210Z,71.20
2022-09-22T22:47:22.687Z,71.10
2022-09-22T22:50:24.766Z,71.40
2022-09-22T22:53:27.059Z,71.90
2022-09-22T22:56:28.995Z,72.00
2022-09-22T22:59:31.131Z,72.20
2022-09-22T23:02:33.096Z,71.90
2022-09-22T23:05:38.345Z,72.60
2022-09-22T23:08:43.596Z,72.50
2022-09-22T23:11:45.731Z,72.00
2022-09-22T23:14:47.674Z,72.70
2022-09-22T23:17:49.730Z,73.40
2022-09-22T23:20:54.427Z,73.80
2022-09-22T23:23:56.785Z,74.50
2022-09-22T23:26:58.940Z,75.80
2022-09-22T23:30:00.945Z,75.40
2022-09-22T23:33:02.858Z,75.20
2022-09-22T23:36:07.184Z,74.50
2022-09-22T23:39:12.264Z,74.70
2022-09-22T23:42:14.288Z,74.00
2022-09-22T23:45:16.375Z,74.70
2022-09-22T23:48:19.757Z,74.40
2022-09-22T23:51:21.819Z,74.30
2022-09-22T23:54:23.888Z,74.40
2022-09-22T23:57:25.897Z,74.50
